sensor_id;sensor_type;location;lat;lon;timestamp;P1;durP1;ratioP1;P2;durP2;ratioP2
80138;SDS011;69467;59.842;17.604;2023-05-02T00:00:47;0.32;;;0.20;;
80138;SDS011;69467;59.842;17.604;2023-05-02T00:05:40;0.43;;;0.28;;
80138;SDS011;69467;59.842;17.604;2023-05-02T00:08:06;0.30;;;0.20;;
80138;SDS011;69467;59.842;17.604;2023-05-02T00:10:31;1.75;;;1.17;;
80138;SDS011;69467;59.842;17.604;2023-05-02T00:12:57;0.50;;;0.50;;
80138;SDS011;69467;59.842;17.604;2023-05-02T00:15:23;0.70;;;0.45;;
80138;SDS011;69467;59.842;17.604;2023-05-02T00:17:48;0.90;;;0.47;;
80138;SDS011;69467;59.842;17.604;2023-05-02T00:20:13;0.55;;;0.28;;
80138;SDS011;69467;59.842;17.604;2023-05-02T00:22:39;0.50;;;0.50;;
80138;SDS011;69467;59.842;17.604;2023-05-02T00:25:05;1.30;;;0.77;;
80138;SDS011;69467;59.842;17.604;2023-05-02T00:27:31;0.57;;;0.40;;
80138;SDS011;69467;59.842;17.604;2023-05-02T00:29:57;0.65;;;0.47;;
80138;SDS011;69467;59.842;17.604;2023-05-02T00:32:24;0.63;;;0.32;;
80138;SDS011;69467;59.842;17.604;2023-05-02T00:34:49;0.70;;;0.35;;
80138;SDS011;69467;59.842;17.604;2023-05-02T00:37:15;0.98;;;0.52;;
80138;SDS011;69467;59.842;17.604;2023-05-02T00:39:40;1.10;;;0.80;;
80138;SDS011;69467;59.842;17.604;2023-05-02T00:42:06;0.55;;;0.30;;
80138;SDS011;69467;59.842;17.604;2023-05-02T00:44:31;0.50;;;0.43;;
80138;SDS011;69467;59.842;17.604;2023-05-02T00:46:57;1.33;;;0.95;;
80138;SDS011;69467;59.842;17.604;2023-05-02T00:49:25;0.70;;;0.50;;
80138;SDS011;69467;59.842;17.604;2023-05-02T00:51:50;0.30;;;0.20;;
80138;SDS011;69467;59.842;17.604;2023-05-02T00:54:17;0.40;;;0.20;;
80138;SDS011;69467;59.842;17.604;2023-05-02T00:56:42;1.50;;;0.47;;
80138;SDS011;69467;59.842;17.604;2023-05-02T00:59:08;0.45;;;0.20;;
80138;SDS011;69467;59.842;17.604;2023-05-02T01:07:18;0.30;;;0.10;;
80138;SDS011;69467;59.842;17.604;2023-05-02T01:10:00;0.35;;;0.20;;
80138;SDS011;69467;59.842;17.604;2023-05-02T01:12:41;0.52;;;0.50;;
80138;SDS011;69467;59.842;17.604;2023-05-02T01:15:26;0.50;;;0.30;;
80138;SDS011;69467;59.842;17.604;2023-05-02T01:17:52;0.45;;;0.20;;
80138;SDS011;69467;59.842;17.604;2023-05-02T01:20:20;1.77;;;0.30;;
80138;SDS011;69467;59.842;17.604;2023-05-02T01:22:51;0.30;;;0.30;;
80138;SDS011;69467;59.842;17.604;2023-05-02T01:25:36;0.55;;;0.40;;
80138;SDS011;69467;59.842;17.604;2023-05-02T01:31:17;1.67;;;0.95;;
80138;SDS011;69467;59.842;17.604;2023-05-02T01:33:43;1.08;;;0.43;;
80138;SDS011;69467;59.842;17.604;2023-05-02T01:36:11;0.63;;;0.50;;
80138;SDS011;69467;59.842;17.604;2023-05-02T01:38:38;0.95;;;0.30;;
80138;SDS011;69467;59.842;17.604;2023-05-02T01:41:06;0.70;;;0.32;;
80138;SDS011;69467;59.842;17.604;2023-05-02T01:43:33;0.60;;;0.50;;
80138;SDS011;69467;59.842;17.604;2023-05-02T01:46:00;0.80;;;0.50;;
80138;SDS011;69467;59.842;17.604;2023-05-02T01:48:29;0.68;;;0.43;;
80138;SDS011;69467;59.842;17.604;2023-05-02T01:50:55;0.93;;;0.77;;
80138;SDS011;69467;59.842;17.604;2023-05-02T01:53:23;1.17;;;0.63;;
80138;SDS011;69467;59.842;17.604;2023-05-02T01:55:50;1.23;;;0.80;;
80138;SDS011;69467;59.842;17.604;2023-05-02T01:58:18;0.98;;;0.93;;
80138;SDS011;69467;59.842;17.604;2023-05-02T02:00:45;1.45;;;1.23;;
80138;SDS011;69467;59.842;17.604;2023-05-02T02:03:12;1.40;;;1.15;;
80138;SDS011;69467;59.842;17.604;2023-05-02T02:05:39;0.82;;;0.68;;
80138;SDS011;69467;59.842;17.604;2023-05-02T02:08:05;1.30;;;1.02;;
80138;SDS011;69467;59.842;17.604;2023-05-02T02:10:34;1.02;;;0.90;;
80138;SDS011;69467;59.842;17.604;2023-05-02T02:13:06;1.30;;;1.20;;
80138;SDS011;69467;59.842;17.604;2023-05-02T02:15:41;1.73;;;1.47;;
80138;SDS011;69467;59.842;17.604;2023-05-02T02:18:12;4.28;;;1.48;;
80138;SDS011;69467;59.842;17.604;2023-05-02T02:20:42;1.33;;;1.02;;
80138;SDS011;69467;59.842;17.604;2023-05-02T02:23:11;2.60;;;1.20;;
80138;SDS011;69467;59.842;17.604;2023-05-02T02:25:38;3.03;;;1.50;;
80138;SDS011;69467;59.842;17.604;2023-05-02T02:28:05;1.08;;;0.95;;
80138;SDS011;69467;59.842;17.604;2023-05-02T02:30:31;2.75;;;1.92;;
80138;SDS011;69467;59.842;17.604;2023-05-02T02:32:57;1.98;;;1.08;;
80138;SDS011;69467;59.842;17.604;2023-05-02T02:35:22;1.55;;;1.15;;
80138;SDS011;69467;59.842;17.604;2023-05-02T02:37:58;2.28;;;0.90;;
80138;SDS011;69467;59.842;17.604;2023-05-02T02:40:36;1.55;;;1.25;;
80138;SDS011;69467;59.842;17.604;2023-05-02T02:43:08;1.20;;;1.10;;
80138;SDS011;69467;59.842;17.604;2023-05-02T02:45:46;1.13;;;0.80;;
80138;SDS011;69467;59.842;17.604;2023-05-02T02:51:06;1.88;;;1.27;;
80138;SDS011;69467;59.842;17.604;2023-05-02T02:56:26;1.77;;;1.33;;
80138;SDS011;69467;59.842;17.604;2023-05-02T02:59:02;1.80;;;1.30;;
80138;SDS011;69467;59.842;17.604;2023-05-02T03:01:31;1.30;;;1.08;;
80138;SDS011;69467;59.842;17.604;2023-05-02T03:03:58;2.78;;;1.13;;
80138;SDS011;69467;59.842;17.604;2023-05-02T03:06:26;3.77;;;1.50;;
80138;SDS011;69467;59.842;17.604;2023-05-02T03:08:51;6.25;;;1.65;;
80138;SDS011;69467;59.842;17.604;2023-05-02T03:11:17;1.67;;;1.58;;
80138;SDS011;69467;59.842;17.604;2023-05-02T03:13:42;0.95;;;0.90;;
80138;SDS011;69467;59.842;17.604;2023-05-02T03:19:00;1.07;;;0.90;;
80138;SDS011;69467;59.842;17.604;2023-05-02T03:21:25;1.58;;;0.95;;
80138;SDS011;69467;59.842;17.604;2023-05-02T03:23:51;0.93;;;0.82;;
80138;SDS011;69467;59.842;17.604;2023-05-02T03:26:17;2.35;;;0.95;;
80138;SDS011;69467;59.842;17.604;2023-05-02T03:28:42;0.75;;;0.68;;
80138;SDS011;69467;59.842;17.604;2023-05-02T03:31:11;0.93;;;0.82;;
80138;SDS011;69467;59.842;17.604;2023-05-02T03:33:37;2.17;;;0.93;;
80138;SDS011;69467;59.842;17.604;2023-05-02T03:36:02;1.25;;;1.05;;
80138;SDS011;69467;59.842;17.604;2023-05-02T03:38:28;2.90;;;0.90;;
80138;SDS011;69467;59.842;17.604;2023-05-02T03:40:57;1.45;;;1.15;;
80138;SDS011;69467;59.842;17.604;2023-05-02T03:43:23;2.72;;;1.00;;
80138;SDS011;69467;59.842;17.604;2023-05-02T03:45:48;1.45;;;1.20;;
80138;SDS011;69467;59.842;17.604;2023-05-02T03:48:14;1.33;;;1.15;;
80138;SDS011;69467;59.842;17.604;2023-05-02T03:50:39;1.27;;;1.17;;
80138;SDS011;69467;59.842;17.604;2023-05-02T03:53:04;1.75;;;1.23;;
80138;SDS011;69467;59.842;17.604;2023-05-02T03:55:31;1.92;;;1.50;;
80138;SDS011;69467;59.842;17.604;2023-05-02T03:57:57;1.88;;;1.48;;
80138;SDS011;69467;59.842;17.604;2023-05-02T04:00:22;1.60;;;1.50;;
80138;SDS011;69467;59.842;17.604;2023-05-02T04:02:48;1.40;;;1.30;;
80138;SDS011;69467;59.842;17.604;2023-05-02T04:05:13;1.85;;;1.55;;
80138;SDS011;69467;59.842;17.604;2023-05-02T04:07:38;3.22;;;1.42;;
80138;SDS011;69467;59.842;17.604;2023-05-02T04:10:04;2.00;;;1.60;;
80138;SDS011;69467;59.842;17.604;2023-05-02T04:12:30;2.17;;;1.90;;
80138;SDS011;69467;59.842;17.604;2023-05-02T04:14:56;2.22;;;1.60;;
80138;SDS011;69467;59.842;17.604;2023-05-02T04:17:21;1.92;;;1.73;;
80138;SDS011;69467;59.842;17.604;2023-05-02T04:19:47;3.78;;;2.00;;
80138;SDS011;69467;59.842;17.604;2023-05-02T04:22:12;1.95;;;1.75;;
80138;SDS011;69467;59.842;17.604;2023-05-02T04:24:38;4.25;;;3.47;;
80138;SDS011;69467;59.842;17.604;2023-05-02T04:27:03;2.65;;;2.45;;
80138;SDS011;69467;59.842;17.604;2023-05-02T04:29:28;2.97;;;2.17;;
80138;SDS011;69467;59.842;17.604;2023-05-02T04:31:54;3.60;;;1.77;;
80138;SDS011;69467;59.842;17.604;2023-05-02T04:34:19;3.00;;;1.30;;
80138;SDS011;69467;59.842;17.604;2023-05-02T04:36:45;1.92;;;1.70;;
80138;SDS011;69467;59.842;17.604;2023-05-02T04:39:11;2.28;;;1.95;;
80138;SDS011;69467;59.842;17.604;2023-05-02T04:41:36;1.50;;;1.40;;
80138;SDS011;69467;59.842;17.604;2023-05-02T04:44:01;2.78;;;1.65;;
80138;SDS011;69467;59.842;17.604;2023-05-02T04:46:27;1.63;;;1.52;;
80138;SDS011;69467;59.842;17.604;2023-05-02T04:48:53;3.15;;;1.65;;
80138;SDS011;69467;59.842;17.604;2023-05-02T04:51:18;1.92;;;1.58;;
80138;SDS011;69467;59.842;17.604;2023-05-02T04:53:44;1.90;;;1.25;;
80138;SDS011;69467;59.842;17.604;2023-05-02T04:56:09;1.63;;;1.52;;
80138;SDS011;69467;59.842;17.604;2023-05-02T04:58:35;1.88;;;1.67;;
80138;SDS011;69467;59.842;17.604;2023-05-02T05:01:01;1.40;;;1.30;;
80138;SDS011;69467;59.842;17.604;2023-05-02T05:03:26;1.40;;;1.30;;
80138;SDS011;69467;59.842;17.604;2023-05-02T05:05:54;2.05;;;1.92;;
80138;SDS011;69467;59.842;17.604;2023-05-02T05:08:20;2.22;;;1.42;;
80138;SDS011;69467;59.842;17.604;2023-05-02T05:10:45;2.15;;;1.60;;
80138;SDS011;69467;59.842;17.604;2023-05-02T05:13:11;4.68;;;1.73;;
80138;SDS011;69467;59.842;17.604;2023-05-02T05:15:38;3.63;;;1.00;;
80138;SDS011;69467;59.842;17.604;2023-05-02T05:18:04;2.25;;;1.38;;
80138;SDS011;69467;59.842;17.604;2023-05-02T05:20:29;2.00;;;1.80;;
80138;SDS011;69467;59.842;17.604;2023-05-02T05:22:55;2.42;;;2.22;;
80138;SDS011;69467;59.842;17.604;2023-05-02T05:25:21;2.80;;;1.58;;
80138;SDS011;69467;59.842;17.604;2023-05-02T05:27:46;2.10;;;1.90;;
80138;SDS011;69467;59.842;17.604;2023-05-02T05:30:11;3.15;;;1.33;;
80138;SDS011;69467;59.842;17.604;2023-05-02T05:32:37;1.85;;;1.60;;
80138;SDS011;69467;59.842;17.604;2023-05-02T05:35:03;3.63;;;1.88;;
80138;SDS011;69467;59.842;17.604;2023-05-02T05:37:28;1.70;;;1.52;;
80138;SDS011;69467;59.842;17.604;2023-05-02T05:39:54;2.55;;;2.35;;
80138;SDS011;69467;59.842;17.604;2023-05-02T05:42:19;1.60;;;1.50;;
80138;SDS011;69467;59.842;17.604;2023-05-02T05:44:45;1.55;;;1.45;;
80138;SDS011;69467;59.842;17.604;2023-05-02T05:47:10;1.80;;;1.70;;
80138;SDS011;69467;59.842;17.604;2023-05-02T05:49:35;2.38;;;2.17;;
80138;SDS011;69467;59.842;17.604;2023-05-02T05:52:01;3.22;;;1.70;;
80138;SDS011;69467;59.842;17.604;2023-05-02T05:54:27;3.22;;;1.67;;
80138;SDS011;69467;59.842;17.604;2023-05-02T05:56:52;1.48;;;1.38;;
80138;SDS011;69467;59.842;17.604;2023-05-02T05:59:18;3.08;;;2.03;;
80138;SDS011;69467;59.842;17.604;2023-05-02T06:01:43;2.30;;;1.83;;
80138;SDS011;69467;59.842;17.604;2023-05-02T06:04:09;2.00;;;1.85;;
80138;SDS011;69467;59.842;17.604;2023-05-02T06:06:34;2.50;;;1.48;;
80138;SDS011;69467;59.842;17.604;2023-05-02T06:09:00;2.33;;;1.88;;
80138;SDS011;69467;59.842;17.604;2023-05-02T06:11:26;1.90;;;1.60;;
80138;SDS011;69467;59.842;17.604;2023-05-02T06:13:52;1.50;;;1.40;;
80138;SDS011;69467;59.842;17.604;2023-05-02T06:16:18;6.63;;;2.33;;
80138;SDS011;69467;59.842;17.604;2023-05-02T06:18:43;1.63;;;1.33;;
80138;SDS011;69467;59.842;17.604;2023-05-02T06:21:09;1.75;;;1.55;;
80138;SDS011;69467;59.842;17.604;2023-05-02T06:23:36;2.05;;;1.50;;
80138;SDS011;69467;59.842;17.604;2023-05-02T06:26:02;3.35;;;1.20;;
80138;SDS011;69467;59.842;17.604;2023-05-02T06:28:28;1.38;;;1.27;;
80138;SDS011;69467;59.842;17.604;2023-05-02T06:31:01;1.40;;;1.13;;
80138;SDS011;69467;59.842;17.604;2023-05-02T06:33:28;3.85;;;1.05;;
80138;SDS011;69467;59.842;17.604;2023-05-02T06:35:55;2.25;;;1.45;;
80138;SDS011;69467;59.842;17.604;2023-05-02T06:38:20;2.22;;;1.67;;
80138;SDS011;69467;59.842;17.604;2023-05-02T06:40:46;2.90;;;1.60;;
80138;SDS011;69467;59.842;17.604;2023-05-02T06:45:38;1.65;;;0.90;;
80138;SDS011;69467;59.842;17.604;2023-05-02T06:48:05;3.08;;;1.88;;
80138;SDS011;69467;59.842;17.604;2023-05-02T06:52:56;1.35;;;1.23;;
80138;SDS011;69467;59.842;17.604;2023-05-02T06:55:22;1.45;;;1.23;;
80138;SDS011;69467;59.842;17.604;2023-05-02T06:57:48;2.50;;;1.30;;
80138;SDS011;69467;59.842;17.604;2023-05-02T07:00:17;3.00;;;0.95;;
80138;SDS011;69467;59.842;17.604;2023-05-02T07:02:44;2.60;;;2.08;;
80138;SDS011;69467;59.842;17.604;2023-05-02T07:05:10;3.50;;;1.65;;
80138;SDS011;69467;59.842;17.604;2023-05-02T07:07:36;1.58;;;1.30;;
80138;SDS011;69467;59.842;17.604;2023-05-02T07:10:02;2.00;;;1.10;;
80138;SDS011;69467;59.842;17.604;2023-05-02T07:12:28;1.80;;;1.08;;
80138;SDS011;69467;59.842;17.604;2023-05-02T07:14:53;7.32;;;1.85;;
80138;SDS011;69467;59.842;17.604;2023-05-02T07:17:19;1.38;;;1.10;;
80138;SDS011;69467;59.842;17.604;2023-05-02T07:19:44;2.42;;;1.88;;
80138;SDS011;69467;59.842;17.604;2023-05-02T07:22:10;2.13;;;1.52;;
80138;SDS011;69467;59.842;17.604;2023-05-02T07:24:38;1.83;;;1.08;;
80138;SDS011;69467;59.842;17.604;2023-05-02T07:27:04;1.35;;;1.25;;
80138;SDS011;69467;59.842;17.604;2023-05-02T07:29:30;2.08;;;1.30;;
80138;SDS011;69467;59.842;17.604;2023-05-02T07:31:55;1.40;;;0.98;;
80138;SDS011;69467;59.842;17.604;2023-05-02T07:34:21;4.13;;;1.30;;
80138;SDS011;69467;59.842;17.604;2023-05-02T07:36:46;1.33;;;1.10;;
80138;SDS011;69467;59.842;17.604;2023-05-02T07:39:11;2.33;;;1.10;;
80138;SDS011;69467;59.842;17.604;2023-05-02T07:41:37;3.13;;;1.30;;
80138;SDS011;69467;59.842;17.604;2023-05-02T07:44:02;1.40;;;1.30;;
80138;SDS011;69467;59.842;17.604;2023-05-02T07:46:28;2.35;;;0.90;;
80138;SDS011;69467;59.842;17.604;2023-05-02T07:48:53;1.20;;;0.98;;
80138;SDS011;69467;59.842;17.604;2023-05-02T07:51:18;1.45;;;0.85;;
80138;SDS011;69467;59.842;17.604;2023-05-02T07:53:45;1.63;;;1.00;;
80138;SDS011;69467;59.842;17.604;2023-05-02T07:56:14;1.50;;;0.80;;
80138;SDS011;69467;59.842;17.604;2023-05-02T07:58:39;1.27;;;1.17;;
80138;SDS011;69467;59.842;17.604;2023-05-02T08:01:05;3.08;;;0.75;;
80138;SDS011;69467;59.842;17.604;2023-05-02T08:03:30;2.33;;;0.85;;
80138;SDS011;69467;59.842;17.604;2023-05-02T08:05:56;0.90;;;0.90;;
80138;SDS011;69467;59.842;17.604;2023-05-02T08:08:21;4.30;;;2.08;;
80138;SDS011;69467;59.842;17.604;2023-05-02T08:10:47;1.80;;;1.00;;
80138;SDS011;69467;59.842;17.604;2023-05-02T08:13:15;2.63;;;1.33;;
80138;SDS011;69467;59.842;17.604;2023-05-02T08:15:41;1.05;;;0.95;;
80138;SDS011;69467;59.842;17.604;2023-05-02T08:18:06;1.25;;;1.15;;
80138;SDS011;69467;59.842;17.604;2023-05-02T08:20:31;2.35;;;1.48;;
80138;SDS011;69467;59.842;17.604;2023-05-02T08:22:57;2.78;;;2.28;;
80138;SDS011;69467;59.842;17.604;2023-05-02T08:25:22;2.50;;;1.65;;
80138;SDS011;69467;59.842;17.604;2023-05-02T08:27:48;2.65;;;0.93;;
80138;SDS011;69467;59.842;17.604;2023-05-02T08:30:13;4.40;;;1.30;;
80138;SDS011;69467;59.842;17.604;2023-05-02T08:32:38;3.58;;;0.70;;
80138;SDS011;69467;59.842;17.604;2023-05-02T08:35:04;1.30;;;0.82;;
80138;SDS011;69467;59.842;17.604;2023-05-02T08:37:30;0.77;;;0.70;;
80138;SDS011;69467;59.842;17.604;2023-05-02T08:39:56;2.22;;;0.65;;
80138;SDS011;69467;59.842;17.604;2023-05-02T08:42:21;3.70;;;0.93;;
80138;SDS011;69467;59.842;17.604;2023-05-02T08:47:13;10.88;;;5.57;;
80138;SDS011;69467;59.842;17.604;2023-05-02T08:52:05;2.60;;;0.80;;
80138;SDS011;69467;59.842;17.604;2023-05-02T08:54:32;2.10;;;1.35;;
80138;SDS011;69467;59.842;17.604;2023-05-02T08:59:27;0.77;;;0.63;;
80138;SDS011;69467;59.842;17.604;2023-05-02T09:01:54;1.63;;;1.10;;
80138;SDS011;69467;59.842;17.604;2023-05-02T09:04:34;2.95;;;1.05;;
80138;SDS011;69467;59.842;17.604;2023-05-02T09:07:04;1.05;;;0.80;;
80138;SDS011;69467;59.842;17.604;2023-05-02T09:09:30;1.13;;;0.80;;
80138;SDS011;69467;59.842;17.604;2023-05-02T09:11:58;3.50;;;0.80;;
80138;SDS011;69467;59.842;17.604;2023-05-02T09:14:23;3.15;;;1.25;;
80138;SDS011;69467;59.842;17.604;2023-05-02T09:16:49;1.40;;;0.80;;
80138;SDS011;69467;59.842;17.604;2023-05-02T09:19:24;4.38;;;1.05;;
80138;SDS011;69467;59.842;17.604;2023-05-02T09:21:50;2.20;;;0.70;;
80138;SDS011;69467;59.842;17.604;2023-05-02T09:26:58;2.45;;;1.05;;
80138;SDS011;69467;59.842;17.604;2023-05-02T09:29:25;2.25;;;0.45;;
80138;SDS011;69467;59.842;17.604;2023-05-02T09:31:52;1.20;;;0.60;;
80138;SDS011;69467;59.842;17.604;2023-05-02T09:34:18;2.25;;;1.40;;
80138;SDS011;69467;59.842;17.604;2023-05-02T09:36:46;3.15;;;0.68;;
80138;SDS011;69467;59.842;17.604;2023-05-02T09:39:22;1.23;;;0.57;;
80138;SDS011;69467;59.842;17.604;2023-05-02T09:41:55;3.78;;;1.10;;
80138;SDS011;69467;59.842;17.604;2023-05-02T09:44:22;1.83;;;0.63;;
80138;SDS011;69467;59.842;17.604;2023-05-02T09:47:00;0.68;;;0.68;;
80138;SDS011;69467;59.842;17.604;2023-05-02T09:49:44;3.35;;;1.92;;
80138;SDS011;69467;59.842;17.604;2023-05-02T09:52:11;0.80;;;0.77;;
80138;SDS011;69467;59.842;17.604;2023-05-02T09:54:40;2.22;;;0.60;;
80138;SDS011;69467;59.842;17.604;2023-05-02T09:57:06;0.45;;;0.43;;
80138;SDS011;69467;59.842;17.604;2023-05-02T09:59:32;0.88;;;0.50;;
80138;SDS011;69467;59.842;17.604;2023-05-02T10:02:05;1.85;;;0.50;;
80138;SDS011;69467;59.842;17.604;2023-05-02T10:04:32;0.50;;;0.43;;
80138;SDS011;69467;59.842;17.604;2023-05-02T10:06:58;2.25;;;0.50;;
80138;SDS011;69467;59.842;17.604;2023-05-02T10:09:25;2.40;;;0.50;;
80138;SDS011;69467;59.842;17.604;2023-05-02T10:11:53;1.90;;;0.73;;
80138;SDS011;69467;59.842;17.604;2023-05-02T10:14:21;0.85;;;0.40;;
80138;SDS011;69467;59.842;17.604;2023-05-02T10:19:21;2.20;;;0.50;;
80138;SDS011;69467;59.842;17.604;2023-05-02T10:21:51;3.38;;;0.50;;
80138;SDS011;69467;59.842;17.604;2023-05-02T10:24:17;2.95;;;0.52;;
80138;SDS011;69467;59.842;17.604;2023-05-02T10:26:45;2.70;;;0.40;;
80138;SDS011;69467;59.842;17.604;2023-05-02T10:29:12;1.92;;;0.40;;
80138;SDS011;69467;59.842;17.604;2023-05-02T10:31:37;6.78;;;0.68;;
80138;SDS011;69467;59.842;17.604;2023-05-02T10:34:05;0.93;;;0.43;;
80138;SDS011;69467;59.842;17.604;2023-05-02T10:36:34;1.10;;;0.80;;
80138;SDS011;69467;59.842;17.604;2023-05-02T10:39:00;2.17;;;0.43;;
80138;SDS011;69467;59.842;17.604;2023-05-02T10:41:26;1.23;;;0.47;;
80138;SDS011;69467;59.842;17.604;2023-05-02T10:43:55;3.00;;;0.60;;
80138;SDS011;69467;59.842;17.604;2023-05-02T10:51:27;3.33;;;0.40;;
80138;SDS011;69467;59.842;17.604;2023-05-02T10:53:54;2.20;;;0.25;;
80138;SDS011;69467;59.842;17.604;2023-05-02T10:56:21;0.52;;;0.38;;
80138;SDS011;69467;59.842;17.604;2023-05-02T10:58:48;0.50;;;0.50;;
80138;SDS011;69467;59.842;17.604;2023-05-02T11:04:13;3.25;;;1.23;;
80138;SDS011;69467;59.842;17.604;2023-05-02T11:11:56;1.45;;;0.40;;
80138;SDS011;69467;59.842;17.604;2023-05-02T11:19:22;4.10;;;0.45;;
80138;SDS011;69467;59.842;17.604;2023-05-02T11:21:47;0.90;;;0.30;;
80138;SDS011;69467;59.842;17.604;2023-05-02T11:30:00;0.80;;;0.52;;
80138;SDS011;69467;59.842;17.604;2023-05-02T11:35:25;0.98;;;0.30;;
80138;SDS011;69467;59.842;17.604;2023-05-02T11:38:01;1.55;;;0.30;;
80138;SDS011;69467;59.842;17.604;2023-05-02T11:40:28;0.60;;;0.30;;
80138;SDS011;69467;59.842;17.604;2023-05-02T11:42:55;1.30;;;0.77;;
80138;SDS011;69467;59.842;17.604;2023-05-02T11:45:21;2.17;;;0.20;;
80138;SDS011;69467;59.842;17.604;2023-05-02T11:47:56;0.50;;;0.30;;
80138;SDS011;69467;59.842;17.604;2023-05-02T11:50:22;1.17;;;0.38;;
80138;SDS011;69467;59.842;17.604;2023-05-02T11:52:49;1.95;;;0.30;;
80138;SDS011;69467;59.842;17.604;2023-05-02T11:55:14;3.53;;;0.52;;
80138;SDS011;69467;59.842;17.604;2023-05-02T11:57:40;0.25;;;0.20;;
80138;SDS011;69467;59.842;17.604;2023-05-02T12:00:07;0.22;;;0.20;;
80138;SDS011;69467;59.842;17.604;2023-05-02T12:02:39;0.40;;;0.20;;
80138;SDS011;69467;59.842;17.604;2023-05-02T12:05:06;0.73;;;0.20;;
80138;SDS011;69467;59.842;17.604;2023-05-02T12:07:43;1.30;;;0.30;;
80138;SDS011;69467;59.842;17.604;2023-05-02T12:10:10;1.55;;;0.93;;
80138;SDS011;69467;59.842;17.604;2023-05-02T12:12:37;0.75;;;0.52;;
80138;SDS011;69467;59.842;17.604;2023-05-02T12:15:04;0.20;;;0.20;;
80138;SDS011;69467;59.842;17.604;2023-05-02T12:17:30;0.55;;;0.28;;
80138;SDS011;69467;59.842;17.604;2023-05-02T12:19:58;0.65;;;0.20;;
80138;SDS011;69467;59.842;17.604;2023-05-02T12:22:24;1.13;;;0.32;;
80138;SDS011;69467;59.842;17.604;2023-05-02T12:24:50;1.73;;;0.75;;
80138;SDS011;69467;59.842;17.604;2023-05-02T12:27:17;0.57;;;0.25;;
80138;SDS011;69467;59.842;17.604;2023-05-02T12:29:43;3.20;;;0.20;;
80138;SDS011;69467;59.842;17.604;2023-05-02T12:32:10;4.28;;;0.28;;
80138;SDS011;69467;59.842;17.604;2023-05-02T12:34:36;0.52;;;0.20;;
80138;SDS011;69467;59.842;17.604;2023-05-02T12:39:37;0.30;;;0.20;;
80138;SDS011;69467;59.842;17.604;2023-05-02T12:44:39;1.27;;;0.40;;
80138;SDS011;69467;59.842;17.604;2023-05-02T12:47:08;0.73;;;0.30;;
80138;SDS011;69467;59.842;17.604;2023-05-02T12:49:51;1.42;;;1.00;;
80138;SDS011;69467;59.842;17.604;2023-05-02T12:52:19;0.45;;;0.13;;
80138;SDS011;69467;59.842;17.604;2023-05-02T12:54:45;3.15;;;0.35;;
80138;SDS011;69467;59.842;17.604;2023-05-02T12:57:24;0.10;;;0.10;;
80138;SDS011;69467;59.842;17.604;2023-05-02T12:59:51;2.17;;;1.00;;
80138;SDS011;69467;59.842;17.604;2023-05-02T13:02:18;2.28;;;0.17;;
80138;SDS011;69467;59.842;17.604;2023-05-02T13:07:09;7.38;;;0.50;;
80138;SDS011;69467;59.842;17.604;2023-05-02T13:09:35;3.08;;;0.32;;
80138;SDS011;69467;59.842;17.604;2023-05-02T13:14:27;2.20;;;0.43;;
80138;SDS011;69467;59.842;17.604;2023-05-02T13:16:53;0.20;;;0.10;;
80138;SDS011;69467;59.842;17.604;2023-05-02T13:19:19;5.43;;;0.52;;
80138;SDS011;69467;59.842;17.604;2023-05-02T13:21:45;0.63;;;0.28;;
80138;SDS011;69467;59.842;17.604;2023-05-02T13:24:10;1.02;;;0.30;;
80138;SDS011;69467;59.842;17.604;2023-05-02T13:29:02;0.25;;;0.20;;
80138;SDS011;69467;59.842;17.604;2023-05-02T13:31:27;0.90;;;0.30;;
80138;SDS011;69467;59.842;17.604;2023-05-02T13:33:53;0.80;;;0.30;;
80138;SDS011;69467;59.842;17.604;2023-05-02T13:36:18;0.90;;;0.30;;
80138;SDS011;69467;59.842;17.604;2023-05-02T13:38:43;2.78;;;0.10;;
80138;SDS011;69467;59.842;17.604;2023-05-02T13:41:09;1.92;;;0.52;;
80138;SDS011;69467;59.842;17.604;2023-05-02T13:46:00;7.30;;;1.90;;
80138;SDS011;69467;59.842;17.604;2023-05-02T13:48:25;1.75;;;0.25;;
80138;SDS011;69467;59.842;17.604;2023-05-02T13:50:50;0.85;;;0.20;;
80138;SDS011;69467;59.842;17.604;2023-05-02T13:53:16;1.92;;;0.28;;
80138;SDS011;69467;59.842;17.604;2023-05-02T13:55:41;0.28;;;0.20;;
80138;SDS011;69467;59.842;17.604;2023-05-02T13:58:07;2.03;;;0.20;;
80138;SDS011;69467;59.842;17.604;2023-05-02T14:00:32;0.30;;;0.20;;
80138;SDS011;69467;59.842;17.604;2023-05-02T14:02:58;0.98;;;0.15;;
80138;SDS011;69467;59.842;17.604;2023-05-02T14:05:23;4.10;;;0.20;;
80138;SDS011;69467;59.842;17.604;2023-05-02T14:07:49;3.63;;;0.20;;
80138;SDS011;69467;59.842;17.604;2023-05-02T14:10:15;0.85;;;0.20;;
80138;SDS011;69467;59.842;17.604;2023-05-02T14:12:40;1.45;;;0.25;;
80138;SDS011;69467;59.842;17.604;2023-05-02T14:15:06;0.90;;;0.30;;
80138;SDS011;69467;59.842;17.604;2023-05-02T14:19:57;9.35;;;0.57;;
80138;SDS011;69467;59.842;17.604;2023-05-02T14:22:22;5.80;;;0.68;;
80138;SDS011;69467;59.842;17.604;2023-05-02T14:24:48;0.03;;;0.03;;
80138;SDS011;69467;59.842;17.604;2023-05-02T14:27:13;0.85;;;0.28;;
80138;SDS011;69467;59.842;17.604;2023-05-02T14:29:45;0.30;;;0.28;;
80138;SDS011;69467;59.842;17.604;2023-05-02T14:32:12;0.75;;;0.32;;
80138;SDS011;69467;59.842;17.604;2023-05-02T14:37:03;1.70;;;0.20;;
80138;SDS011;69467;59.842;17.604;2023-05-02T14:39:28;0.70;;;0.20;;
80138;SDS011;69467;59.842;17.604;2023-05-02T14:41:54;3.45;;;0.73;;
80138;SDS011;69467;59.842;17.604;2023-05-02T14:44:20;1.27;;;0.40;;
80138;SDS011;69467;59.842;17.604;2023-05-02T14:46:45;18.45;;;1.30;;
80138;SDS011;69467;59.842;17.604;2023-05-02T14:49:10;1.25;;;0.35;;
80138;SDS011;69467;59.842;17.604;2023-05-02T14:51:36;1.23;;;0.20;;
80138;SDS011;69467;59.842;17.604;2023-05-02T14:54:03;5.38;;;0.45;;
80138;SDS011;69467;59.842;17.604;2023-05-02T14:56:30;3.75;;;0.70;;
80138;SDS011;69467;59.842;17.604;2023-05-02T14:58:56;0.70;;;0.13;;
80138;SDS011;69467;59.842;17.604;2023-05-02T15:01:21;0.40;;;0.30;;
80138;SDS011;69467;59.842;17.604;2023-05-02T15:03:47;0.25;;;0.20;;
80138;SDS011;69467;59.842;17.604;2023-05-02T15:06:14;5.53;;;0.73;;
80138;SDS011;69467;59.842;17.604;2023-05-02T15:08:40;1.27;;;0.20;;
80138;SDS011;69467;59.842;17.604;2023-05-02T15:11:08;0.43;;;0.20;;
80138;SDS011;69467;59.842;17.604;2023-05-02T15:13:34;3.33;;;1.35;;
80138;SDS011;69467;59.842;17.604;2023-05-02T15:16:01;2.78;;;0.20;;
80138;SDS011;69467;59.842;17.604;2023-05-02T15:18:26;0.17;;;0.17;;
80138;SDS011;69467;59.842;17.604;2023-05-02T15:20:51;2.67;;;0.20;;
80138;SDS011;69467;59.842;17.604;2023-05-02T15:23:17;0.73;;;0.30;;
80138;SDS011;69467;59.842;17.604;2023-05-02T15:25:43;1.92;;;0.22;;
80138;SDS011;69467;59.842;17.604;2023-05-02T15:28:08;0.20;;;0.20;;
80138;SDS011;69467;59.842;17.604;2023-05-02T15:30:34;0.30;;;0.20;;
80138;SDS011;69467;59.842;17.604;2023-05-02T15:33:00;0.30;;;0.20;;
80138;SDS011;69467;59.842;17.604;2023-05-02T15:35:25;2.25;;;0.30;;
80138;SDS011;69467;59.842;17.604;2023-05-02T15:37:51;3.80;;;0.63;;
80138;SDS011;69467;59.842;17.604;2023-05-02T15:40:16;3.03;;;0.63;;
80138;SDS011;69467;59.842;17.604;2023-05-02T15:42:42;1.52;;;0.30;;
80138;SDS011;69467;59.842;17.604;2023-05-02T15:45:09;5.72;;;0.50;;
80138;SDS011;69467;59.842;17.604;2023-05-02T15:47:36;3.95;;;0.52;;
80138;SDS011;69467;59.842;17.604;2023-05-02T15:50:01;1.75;;;0.65;;
80138;SDS011;69467;59.842;17.604;2023-05-02T15:52:27;0.85;;;0.30;;
80138;SDS011;69467;59.842;17.604;2023-05-02T15:54:52;1.70;;;0.30;;